sensor_id;sensor_type;location;lat;lon;timestamp;temperature;humidity
44166;DHT22;30476;53.468;9.826;2023-01-24T00:01:02;5.30;99.90
44166;DHT22;30476;53.468;9.826;2023-01-24T00:03:28;5.30;99.90
44166;DHT22;30476;53.468;9.826;2023-01-24T00:05:54;5.30;99.90
44166;DHT22;30476;53.468;9.826;2023-01-24T00:08:20;5.30;99.90
44166;DHT22;30476;53.468;9.826;2023-01-24T00:10:49;5.30;99.90
44166;DHT22;30476;53.468;9.826;2023-01-24T00:13:15;5.30;99.90
44166;DHT22;30476;53.468;9.826;2023-01-24T00:15:41;5.30;99.90
44166;DHT22;30476;53.468;9.826;2023-01-24T00:18:07;5.30;99.90
44166;DHT22;30476;53.468;9.826;2023-01-24T00:20:33;5.30;99.90
44166;DHT22;30476;53.468;9.826;2023-01-24T00:22:59;5.30;99.90
44166;DHT22;30476;53.468;9.826;2023-01-24T00:25:25;5.30;99.90
44166;DHT22;30476;53.468;9.826;2023-01-24T00:27:50;5.30;99.90
44166;DHT22;30476;53.468;9.826;2023-01-24T00:30:16;5.30;99.90
44166;DHT22;30476;53.468;9.826;2023-01-24T00:32:42;5.30;99.90
44166;DHT22;30476;53.468;9.826;2023-01-24T00:35:08;5.30;99.90
44166;DHT22;30476;53.468;9.826;2023-01-24T00:37:34;5.30;99.90
44166;DHT22;30476;53.468;9.826;2023-01-24T00:40:00;5.30;99.90
44166;DHT22;30476;53.468;9.826;2023-01-24T00:42:25;5.30;99.90
44166;DHT22;30476;53.468;9.826;2023-01-24T00:44:51;5.40;99.90
44166;DHT22;30476;53.468;9.826;2023-01-24T00:47:17;5.40;99.90
44166;DHT22;30476;53.468;9.826;2023-01-24T00:49:43;5.30;99.90
44166;DHT22;30476;53.468;9.826;2023-01-24T00:52:09;5.40;99.90
44166;DHT22;30476;53.468;9.826;2023-01-24T00:54:34;5.30;99.90
44166;DHT22;30476;53.468;9.826;2023-01-24T00:57:00;5.40;99.90
44166;DHT22;30476;53.468;9.826;2023-01-24T00:59:26;5.40;99.90
44166;DHT22;30476;53.468;9.826;2023-01-24T01:01:52;5.30;99.90
44166;DHT22;30476;53.468;9.826;2023-01-24T01:04:17;5.40;99.90
44166;DHT22;30476;53.468;9.826;2023-01-24T01:06:44;5.30;99.90
44166;DHT22;30476;53.468;9.826;2023-01-24T01:09:10;5.30;99.90
44166;DHT22;30476;53.468;9.826;2023-01-24T01:11:37;5.30;99.90
44166;DHT22;30476;53.468;9.826;2023-01-24T01:14:07;5.30;99.90
44166;DHT22;30476;53.468;9.826;2023-01-24T01:16:33;5.30;99.90
44166;DHT22;30476;53.468;9.826;2023-01-24T01:19:03;5.30;99.90
44166;DHT22;30476;53.468;9.826;2023-01-24T01:21:29;5.30;99.90
44166;DHT22;30476;53.468;9.826;2023-01-24T01:23:54;5.30;99.90
44166;DHT22;30476;53.468;9.826;2023-01-24T01:26:21;5.30;99.90
44166;DHT22;30476;53.468;9.826;2023-01-24T01:28:47;5.30;99.90
44166;DHT22;30476;53.468;9.826;2023-01-24T01:31:14;5.30;99.90
44166;DHT22;30476;53.468;9.826;2023-01-24T01:33:40;5.30;99.90
44166;DHT22;30476;53.468;9.826;2023-01-24T01:36:06;5.30;99.90
44166;DHT22;30476;53.468;9.826;2023-01-24T01:38:32;5.30;99.90
44166;DHT22;30476;53.468;9.826;2023-01-24T01:40:58;5.30;99.90
44166;DHT22;30476;53.468;9.826;2023-01-24T01:43:26;5.30;99.90
44166;DHT22;30476;53.468;9.826;2023-01-24T01:45:54;5.30;99.90
44166;DHT22;30476;53.468;9.826;2023-01-24T01:48:39;5.30;99.90
44166;DHT22;30476;53.468;9.826;2023-01-24T01:51:19;5.30;99.90
44166;DHT22;30476;53.468;9.826;2023-01-24T01:54:02;5.30;99.90
44166;DHT22;30476;53.468;9.826;2023-01-24T01:56:46;5.30;99.90
44166;DHT22;30476;53.468;9.826;2023-01-24T01:59:19;5.30;99.90
44166;DHT22;30476;53.468;9.826;2023-01-24T02:01:46;5.30;99.90
44166;DHT22;30476;53.468;9.826;2023-01-24T02:04:20;5.20;99.90
44166;DHT22;30476;53.468;9.826;2023-01-24T02:09:29;5.20;99.90
44166;DHT22;30476;53.468;9.826;2023-01-24T02:12:01;5.20;99.90
44166;DHT22;30476;53.468;9.826;2023-01-24T02:14:29;5.20;99.90
44166;DHT22;30476;53.468;9.826;2023-01-24T02:17:19;5.10;99.90
44166;DHT22;30476;53.468;9.826;2023-01-24T02:25:22;5.20;99.90
44166;DHT22;30476;53.468;9.826;2023-01-24T02:27:49;5.20;99.90
44166;DHT22;30476;53.468;9.826;2023-01-24T02:30:15;5.20;99.90
44166;DHT22;30476;53.468;9.826;2023-01-24T02:32:41;5.10;99.90
44166;DHT22;30476;53.468;9.826;2023-01-24T02:35:19;5.10;99.90
44166;DHT22;30476;53.468;9.826;2023-01-24T02:37:46;5.10;99.90
44166;DHT22;30476;53.468;9.826;2023-01-24T02:40:12;5.10;99.90
44166;DHT22;30476;53.468;9.826;2023-01-24T02:42:38;5.10;99.90
44166;DHT22;30476;53.468;9.826;2023-01-24T02:45:10;5.10;99.90
44166;DHT22;30476;53.468;9.826;2023-01-24T02:47:46;5.00;99.90
44166;DHT22;30476;53.468;9.826;2023-01-24T02:50:12;5.10;99.90
44166;DHT22;30476;53.468;9.826;2023-01-24T02:52:38;5.00;99.90
44166;DHT22;30476;53.468;9.826;2023-01-24T02:55:23;5.00;99.90
44166;DHT22;30476;53.468;9.826;2023-01-24T02:57:50;5.10;99.90
44166;DHT22;30476;53.468;9.826;2023-01-24T03:00:42;5.00;99.90
44166;DHT22;30476;53.468;9.826;2023-01-24T03:03:08;5.10;99.90
44166;DHT22;30476;53.468;9.826;2023-01-24T03:05:35;5.00;99.90
44166;DHT22;30476;53.468;9.826;2023-01-24T03:08:19;5.10;99.90
44166;DHT22;30476;53.468;9.826;2023-01-24T03:10:45;5.10;99.90
44166;DHT22;30476;53.468;9.826;2023-01-24T03:13:12;5.10;99.90
44166;DHT22;30476;53.468;9.826;2023-01-24T03:16:00;5.10;99.90
44166;DHT22;30476;53.468;9.826;2023-01-24T03:18:45;5.10;99.90
44166;DHT22;30476;53.468;9.826;2023-01-24T03:21:29;5.10;99.90
44166;DHT22;30476;53.468;9.826;2023-01-24T03:24:14;5.10;99.90
44166;DHT22;30476;53.468;9.826;2023-01-24T03:26:58;5.10;99.90
44166;DHT22;30476;53.468;9.826;2023-01-24T03:29:43;5.10;99.90
44166;DHT22;30476;53.468;9.826;2023-01-24T03:32:27;5.10;99.90
44166;DHT22;30476;53.468;9.826;2023-01-24T03:35:12;5.00;99.90
44166;DHT22;30476;53.468;9.826;2023-01-24T03:37:38;5.00;99.90
44166;DHT22;30476;53.468;9.826;2023-01-24T03:40:22;5.10;99.90
44166;DHT22;30476;53.468;9.826;2023-01-24T03:42:48;5.00;99.90
44166;DHT22;30476;53.468;9.826;2023-01-24T03:45:20;5.10;99.90
44166;DHT22;30476;53.468;9.826;2023-01-24T03:47:49;5.00;99.90
44166;DHT22;30476;53.468;9.826;2023-01-24T03:50:34;5.10;99.90
44166;DHT22;30476;53.468;9.826;2023-01-24T03:53:19;5.00;99.90
44166;DHT22;30476;53.468;9.826;2023-01-24T03:55:46;5.00;99.90
44166;DHT22;30476;53.468;9.826;2023-01-24T03:58:12;5.00;99.90
44166;DHT22;30476;53.468;9.826;2023-01-24T04:00:39;5.00;99.90
44166;DHT22;30476;53.468;9.826;2023-01-24T04:03:05;5.00;99.90
44166;DHT22;30476;53.468;9.826;2023-01-24T04:05:32;5.00;99.90
44166;DHT22;30476;53.468;9.826;2023-01-24T04:07:58;5.00;99.90
44166;DHT22;30476;53.468;9.826;2023-01-24T04:10:24;5.00;99.90
44166;DHT22;30476;53.468;9.826;2023-01-24T04:12:50;5.00;99.90
44166;DHT22;30476;53.468;9.826;2023-01-24T04:15:19;5.00;99.90
44166;DHT22;30476;53.468;9.826;2023-01-24T04:17:45;5.00;99.90
44166;DHT22;30476;53.468;9.826;2023-01-24T04:20:11;5.00;99.90
44166;DHT22;30476;53.468;9.826;2023-01-24T04:22:38;5.00;99.90
44166;DHT22;30476;53.468;9.826;2023-01-24T04:25:04;5.00;99.90
44166;DHT22;30476;53.468;9.826;2023-01-24T04:27:29;5.00;99.90
44166;DHT22;30476;53.468;9.826;2023-01-24T04:29:55;5.00;99.90
44166;DHT22;30476;53.468;9.826;2023-01-24T04:32:21;5.00;99.90
44166;DHT22;30476;53.468;9.826;2023-01-24T04:34:47;5.00;99.90
44166;DHT22;30476;53.468;9.826;2023-01-24T04:37:12;5.00;99.90
44166;DHT22;30476;53.468;9.826;2023-01-24T04:39:38;5.00;99.90
44166;DHT22;30476;53.468;9.826;2023-01-24T04:42:04;5.00;99.90
44166;DHT22;30476;53.468;9.826;2023-01-24T04:44:31;5.00;99.90
44166;DHT22;30476;53.468;9.826;2023-01-24T04:46:58;5.00;99.90
44166;DHT22;30476;53.468;9.826;2023-01-24T04:49:24;5.00;99.90
44166;DHT22;30476;53.468;9.826;2023-01-24T04:51:50;5.00;99.90
44166;DHT22;30476;53.468;9.826;2023-01-24T04:54:17;5.00;99.90
44166;DHT22;30476;53.468;9.826;2023-01-24T04:56:43;5.00;99.90
44166;DHT22;30476;53.468;9.826;2023-01-24T04:59:11;5.00;99.90
44166;DHT22;30476;53.468;9.826;2023-01-24T05:01:37;5.00;99.90
44166;DHT22;30476;53.468;9.826;2023-01-24T05:04:04;5.00;99.90
44166;DHT22;30476;53.468;9.826;2023-01-24T05:06:31;5.00;99.90
44166;DHT22;30476;53.468;9.826;2023-01-24T05:08:57;5.00;99.90
44166;DHT22;30476;53.468;9.826;2023-01-24T05:11:23;5.00;99.90
44166;DHT22;30476;53.468;9.826;2023-01-24T05:13:49;5.10;99.90
44166;DHT22;30476;53.468;9.826;2023-01-24T05:16:16;5.00;99.90
44166;DHT22;30476;53.468;9.826;2023-01-24T05:18:42;5.00;99.90
44166;DHT22;30476;53.468;9.826;2023-01-24T05:21:11;5.00;99.90
44166;DHT22;30476;53.468;9.826;2023-01-24T05:23:39;5.00;99.90
44166;DHT22;30476;53.468;9.826;2023-01-24T05:26:05;5.00;99.90
44166;DHT22;30476;53.468;9.826;2023-01-24T05:28:31;5.00;99.90
44166;DHT22;30476;53.468;9.826;2023-01-24T05:30:58;5.00;99.90
44166;DHT22;30476;53.468;9.826;2023-01-24T05:33:25;5.00;99.90
44166;DHT22;30476;53.468;9.826;2023-01-24T05:35:57;5.00;99.90
44166;DHT22;30476;53.468;9.826;2023-01-24T05:38:23;5.00;99.90
44166;DHT22;30476;53.468;9.826;2023-01-24T05:40:49;4.90;99.90
44166;DHT22;30476;53.468;9.826;2023-01-24T05:43:15;4.90;99.90
44166;DHT22;30476;53.468;9.826;2023-01-24T05:45:40;4.90;99.90
44166;DHT22;30476;53.468;9.826;2023-01-24T05:48:06;5.00;99.90
44166;DHT22;30476;53.468;9.826;2023-01-24T05:50:32;4.90;99.90
44166;DHT22;30476;53.468;9.826;2023-01-24T05:53:01;4.90;99.90
44166;DHT22;30476;53.468;9.826;2023-01-24T05:55:27;4.90;99.90
44166;DHT22;30476;53.468;9.826;2023-01-24T05:57:53;4.90;99.90
44166;DHT22;30476;53.468;9.826;2023-01-24T06:00:19;4.90;99.90
44166;DHT22;30476;53.468;9.826;2023-01-24T06:02:45;4.90;99.90
44166;DHT22;30476;53.468;9.826;2023-01-24T06:05:11;4.90;99.90
44166;DHT22;30476;53.468;9.826;2023-01-24T06:07:36;4.90;99.90
44166;DHT22;30476;53.468;9.826;2023-01-24T06:10:02;4.90;99.90
44166;DHT22;30476;53.468;9.826;2023-01-24T06:12:28;4.80;99.90
44166;DHT22;30476;53.468;9.826;2023-01-24T06:14:54;4.80;99.90
44166;DHT22;30476;53.468;9.826;2023-01-24T06:17:20;4.80;99.90
44166;DHT22;30476;53.468;9.826;2023-01-24T06:19:46;4.90;99.90
44166;DHT22;30476;53.468;9.826;2023-01-24T06:22:25;4.90;99.90
44166;DHT22;30476;53.468;9.826;2023-01-24T06:24:54;4.80;99.90
44166;DHT22;30476;53.468;9.826;2023-01-24T06:27:19;4.80;99.90
44166;DHT22;30476;53.468;9.826;2023-01-24T06:29:45;4.90;99.90
44166;DHT22;30476;53.468;9.826;2023-01-24T06:32:22;4.80;99.90
44166;DHT22;30476;53.468;9.826;2023-01-24T06:37:52;4.80;99.90
44166;DHT22;30476;53.468;9.826;2023-01-24T06:40:20;4.80;99.90
44166;DHT22;30476;53.468;9.826;2023-01-24T06:42:49;4.80;99.90
44166;DHT22;30476;53.468;9.826;2023-01-24T06:45:15;4.80;99.90
44166;DHT22;30476;53.468;9.826;2023-01-24T06:47:41;4.80;99.90
44166;DHT22;30476;53.468;9.826;2023-01-24T06:50:14;4.80;99.90
44166;DHT22;30476;53.468;9.826;2023-01-24T06:52:40;4.80;99.90
44166;DHT22;30476;53.468;9.826;2023-01-24T06:55:06;4.80;99.90
44166;DHT22;30476;53.468;9.826;2023-01-24T06:57:32;4.80;99.90
44166;DHT22;30476;53.468;9.826;2023-01-24T06:59:58;4.70;99.90
44166;DHT22;30476;53.468;9.826;2023-01-24T07:02:24;4.80;99.90
44166;DHT22;30476;53.468;9.826;2023-01-24T07:04:50;4.80;99.90
44166;DHT22;30476;53.468;9.826;2023-01-24T07:07:15;4.70;99.90
44166;DHT22;30476;53.468;9.826;2023-01-24T07:09:41;4.80;99.90
44166;DHT22;30476;53.468;9.826;2023-01-24T07:12:07;4.70;99.90
44166;DHT22;30476;53.468;9.826;2023-01-24T07:14:33;4.70;99.90
44166;DHT22;30476;53.468;9.826;2023-01-24T07:16:58;4.70;99.90
44166;DHT22;30476;53.468;9.826;2023-01-24T07:19:24;4.70;99.90
44166;DHT22;30476;53.468;9.826;2023-01-24T07:21:55;4.70;99.90
44166;DHT22;30476;53.468;9.826;2023-01-24T07:24:25;4.70;99.90
44166;DHT22;30476;53.468;9.826;2023-01-24T07:26:52;4.70;99.90
44166;DHT22;30476;53.468;9.826;2023-01-24T07:29:19;4.70;99.90
44166;DHT22;30476;53.468;9.826;2023-01-24T07:31:45;4.70;99.90
44166;DHT22;30476;53.468;9.826;2023-01-24T07:34:14;4.70;99.90
44166;DHT22;30476;53.468;9.826;2023-01-24T07:36:41;4.70;99.90
44166;DHT22;30476;53.468;9.826;2023-01-24T07:39:08;4.80;99.90
44166;DHT22;30476;53.468;9.826;2023-01-24T07:41:37;4.70;99.90
44166;DHT22;30476;53.468;9.826;2023-01-24T07:44:04;4.70;99.90
44166;DHT22;30476;53.468;9.826;2023-01-24T07:46:34;4.70;99.90
44166;DHT22;30476;53.468;9.826;2023-01-24T07:49:00;4.70;99.90
44166;DHT22;30476;53.468;9.826;2023-01-24T07:51:26;4.70;99.90
44166;DHT22;30476;53.468;9.826;2023-01-24T07:53:52;4.70;99.90
44166;DHT22;30476;53.468;9.826;2023-01-24T07:56:18;4.70;99.90
44166;DHT22;30476;53.468;9.826;2023-01-24T07:58:44;4.70;99.90
44166;DHT22;30476;53.468;9.826;2023-01-24T08:01:18;4.70;99.90
44166;DHT22;30476;53.468;9.826;2023-01-24T08:03:45;4.80;99.90
44166;DHT22;30476;53.468;9.826;2023-01-24T08:06:10;4.70;99.90
44166;DHT22;30476;53.468;9.826;2023-01-24T08:08:36;4.70;99.90
44166;DHT22;30476;53.468;9.826;2023-01-24T08:11:02;4.70;99.90
44166;DHT22;30476;53.468;9.826;2023-01-24T08:13:28;4.70;99.90
44166;DHT22;30476;53.468;9.826;2023-01-24T08:15:54;4.70;99.90
44166;DHT22;30476;53.468;9.826;2023-01-24T08:18:20;4.70;99.90
44166;DHT22;30476;53.468;9.826;2023-01-24T08:20:45;4.80;99.90
44166;DHT22;30476;53.468;9.826;2023-01-24T08:23:11;4.80;99.90
44166;DHT22;30476;53.468;9.826;2023-01-24T08:25:37;4.80;99.90
44166;DHT22;30476;53.468;9.826;2023-01-24T08:28:03;4.80;99.90
44166;DHT22;30476;53.468;9.826;2023-01-24T08:30:29;4.70;99.90
44166;DHT22;30476;53.468;9.826;2023-01-24T08:33:05;4.70;99.90
44166;DHT22;30476;53.468;9.826;2023-01-24T08:35:32;4.70;99.90
44166;DHT22;30476;53.468;9.826;2023-01-24T08:37:58;4.70;99.90
44166;DHT22;30476;53.468;9.826;2023-01-24T08:40:24;4.70;99.90
44166;DHT22;30476;53.468;9.826;2023-01-24T08:42:50;4.70;99.90
44166;DHT22;30476;53.468;9.826;2023-01-24T08:45:16;4.70;99.90
44166;DHT22;30476;53.468;9.826;2023-01-24T08:47:42;4.70;99.90
44166;DHT22;30476;53.468;9.826;2023-01-24T08:50:08;4.70;99.90
44166;DHT22;30476;53.468;9.826;2023-01-24T08:52:34;4.70;99.90
44166;DHT22;30476;53.468;9.826;2023-01-24T08:55:00;4.70;99.90
44166;DHT22;30476;53.468;9.826;2023-01-24T08:57:26;4.70;99.90
44166;DHT22;30476;53.468;9.826;2023-01-24T08:59:52;4.70;99.90
44166;DHT22;30476;53.468;9.826;2023-01-24T09:02:18;4.80;99.90
44166;DHT22;30476;53.468;9.826;2023-01-24T09:04:44;4.80;99.90
44166;DHT22;30476;53.468;9.826;2023-01-24T09:07:11;4.80;99.90
44166;DHT22;30476;53.468;9.826;2023-01-24T09:09:37;4.80;99.90
44166;DHT22;30476;53.468;9.826;2023-01-24T09:12:03;4.70;99.90
44166;DHT22;30476;53.468;9.826;2023-01-24T09:14:28;4.70;99.90
44166;DHT22;30476;53.468;9.826;2023-01-24T09:16:54;4.70;99.90
44166;DHT22;30476;53.468;9.826;2023-01-24T09:19:20;4.80;99.90
44166;DHT22;30476;53.468;9.826;2023-01-24T09:21:46;4.80;99.90
44166;DHT22;30476;53.468;9.826;2023-01-24T09:24:17;4.80;99.90
44166;DHT22;30476;53.468;9.826;2023-01-24T09:26:44;4.80;99.90
44166;DHT22;30476;53.468;9.826;2023-01-24T09:29:10;4.80;99.90
44166;DHT22;30476;53.468;9.826;2023-01-24T09:31:36;4.80;99.90
44166;DHT22;30476;53.468;9.826;2023-01-24T09:34:02;4.80;99.90
44166;DHT22;30476;53.468;9.826;2023-01-24T09:36:28;4.80;99.90
44166;DHT22;30476;53.468;9.826;2023-01-24T09:38:56;4.80;99.90
44166;DHT22;30476;53.468;9.826;2023-01-24T09:41:51;4.80;99.90
44166;DHT22;30476;53.468;9.826;2023-01-24T09:44:34;4.80;99.90
44166;DHT22;30476;53.468;9.826;2023-01-24T09:47:15;4.80;99.90
44166;DHT22;30476;53.468;9.826;2023-01-24T09:49:57;4.80;99.90
44166;DHT22;30476;53.468;9.826;2023-01-24T09:52:31;4.90;99.90
44166;DHT22;30476;53.468;9.826;2023-01-24T09:55:19;4.80;99.90
44166;DHT22;30476;53.468;9.826;2023-01-24T09:58:04;4.90;99.90
44166;DHT22;30476;53.468;9.826;2023-01-24T10:00:38;4.80;99.90
44166;DHT22;30476;53.468;9.826;2023-01-24T10:03:23;4.90;99.90
44166;DHT22;30476;53.468;9.826;2023-01-24T10:05:54;4.90;99.90
44166;DHT22;30476;53.468;9.826;2023-01-24T10:17:42;4.90;99.90
44166;DHT22;30476;53.468;9.826;2023-01-24T10:23:15;4.90;99.90
44166;DHT22;30476;53.468;9.826;2023-01-24T10:26:01;4.90;99.90
44166;DHT22;30476;53.468;9.826;2023-01-24T10:28:37;4.90;99.90
44166;DHT22;30476;53.468;9.826;2023-01-24T10:31:13;4.90;99.90
44166;DHT22;30476;53.468;9.826;2023-01-24T10:33:53;4.90;99.90
44166;DHT22;30476;53.468;9.826;2023-01-24T10:36:35;4.90;99.90
44166;DHT22;30476;53.468;9.826;2023-01-24T10:39:04;4.90;99.90
44166;DHT22;30476;53.468;9.826;2023-01-24T10:41:31;4.90;99.90
44166;DHT22;30476;53.468;9.826;2023-01-24T10:44:12;4.90;99.90
44166;DHT22;30476;53.468;9.826;2023-01-24T10:46:47;4.90;99.90
44166;DHT22;30476;53.468;9.826;2023-01-24T10:49:23;4.90;99.90
44166;DHT22;30476;53.468;9.826;2023-01-24T10:52:19;4.90;99.90
44166;DHT22;30476;53.468;9.826;2023-01-24T10:54:51;4.90;99.90
44166;DHT22;30476;53.468;9.826;2023-01-24T10:59:55;4.90;99.90
44166;DHT22;30476;53.468;9.826;2023-01-24T11:02:24;4.90;99.90
44166;DHT22;30476;53.468;9.826;2023-01-24T11:05:12;4.90;99.90
44166;DHT22;30476;53.468;9.826;2023-01-24T11:07:50;5.00;99.90
44166;DHT22;30476;53.468;9.826;2023-01-24T11:10:21;4.90;99.90
44166;DHT22;30476;53.468;9.826;2023-01-24T11:12:58;4.90;99.90
44166;DHT22;30476;53.468;9.826;2023-01-24T11:15:30;4.90;99.90
44166;DHT22;30476;53.468;9.826;2023-01-24T11:18:05;4.90;99.90
44166;DHT22;30476;53.468;9.826;2023-01-24T11:20:33;4.90;99.90
44166;DHT22;30476;53.468;9.826;2023-01-24T11:23:17;4.90;99.90
44166;DHT22;30476;53.468;9.826;2023-01-24T11:26:03;5.00;99.90
44166;DHT22;30476;53.468;9.826;2023-01-24T11:28:36;4.90;99.90
44166;DHT22;30476;53.468;9.826;2023-01-24T11:31:15;4.90;99.90
44166;DHT22;30476;53.468;9.826;2023-01-24T11:36:58;5.00;99.90
44166;DHT22;30476;53.468;9.826;2023-01-24T11:39:48;4.90;99.90
44166;DHT22;30476;53.468;9.826;2023-01-24T11:47:41;5.00;99.90
44166;DHT22;30476;53.468;9.826;2023-01-24T11:53:23;5.00;99.90
44166;DHT22;30476;53.468;9.826;2023-01-24T11:56:46;5.00;99.90
44166;DHT22;30476;53.468;9.826;2023-01-24T12:01:52;5.00;99.90
44166;DHT22;30476;53.468;9.826;2023-01-24T12:04:47;5.00;99.90
44166;DHT22;30476;53.468;9.826;2023-01-24T12:13:14;5.00;99.90
44166;DHT22;30476;53.468;9.826;2023-01-24T12:16:13;5.00;99.90
44166;DHT22;30476;53.468;9.826;2023-01-24T12:18:48;5.00;99.90
44166;DHT22;30476;53.468;9.826;2023-01-24T12:21:18;5.00;99.90
44166;DHT22;30476;53.468;9.826;2023-01-24T12:24:00;5.00;99.90
44166;DHT22;30476;53.468;9.826;2023-01-24T12:26:39;5.00;99.90
44166;DHT22;30476;53.468;9.826;2023-01-24T12:32:02;5.00;99.90
44166;DHT22;30476;53.468;9.826;2023-01-24T12:34:53;5.00;99.90
44166;DHT22;30476;53.468;9.826;2023-01-24T12:42:57;5.10;99.90
44166;DHT22;30476;53.468;9.826;2023-01-24T12:45:34;5.10;99.90
44166;DHT22;30476;53.468;9.826;2023-01-24T12:48:12;5.10;99.90
44166;DHT22;30476;53.468;9.826;2023-01-24T12:50:51;5.00;99.90
44166;DHT22;30476;53.468;9.826;2023-01-24T12:53:24;5.00;99.90
44166;DHT22;30476;53.468;9.826;2023-01-24T12:58:44;5.00;99.90
44166;DHT22;30476;53.468;9.826;2023-01-24T13:01:53;4.90;99.90
44166;DHT22;30476;53.468;9.826;2023-01-24T13:04:56;4.90;99.90
44166;DHT22;30476;53.468;9.826;2023-01-24T13:07:54;4.90;99.90
44166;DHT22;30476;53.468;9.826;2023-01-24T13:10:48;4.90;99.90
44166;DHT22;30476;53.468;9.826;2023-01-24T13:13:27;4.90;99.90
44166;DHT22;30476;53.468;9.826;2023-01-24T13:16:05;4.90;99.90
44166;DHT22;30476;53.468;9.826;2023-01-24T13:19:01;4.80;99.90
44166;DHT22;30476;53.468;9.826;2023-01-24T13:21:48;4.90;99.90
44166;DHT22;30476;53.468;9.826;2023-01-24T13:27:14;4.80;99.90
44166;DHT22;30476;53.468;9.826;2023-01-24T13:29:57;4.80;99.90
44166;DHT22;30476;53.468;9.826;2023-01-24T13:32:25;4.90;99.90
44166;DHT22;30476;53.468;9.826;2023-01-24T13:34:53;4.80;99.90
44166;DHT22;30476;53.468;9.826;2023-01-24T13:37:24;4.80;99.90
44166;DHT22;30476;53.468;9.826;2023-01-24T13:40:22;4.90;99.90
44166;DHT22;30476;53.468;9.826;2023-01-24T13:42:49;4.90;99.90
44166;DHT22;30476;53.468;9.826;2023-01-24T13:47:56;4.80;99.90
44166;DHT22;30476;53.468;9.826;2023-01-24T13:50:27;4.90;99.90
44166;DHT22;30476;53.468;9.826;2023-01-24T13:52:58;4.90;99.90
44166;DHT22;30476;53.468;9.826;2023-01-24T14:03:14;4.80;99.90
44166;DHT22;30476;53.468;9.826;2023-01-24T14:05:53;4.80;99.90
44166;DHT22;30476;53.468;9.826;2023-01-24T14:10:51;4.80;99.90
44166;DHT22;30476;53.468;9.826;2023-01-24T14:16:54;4.70;99.90
44166;DHT22;30476;53.468;9.826;2023-01-24T14:21:53;4.70;99.90
44166;DHT22;30476;53.468;9.826;2023-01-24T14:24:35;4.70;99.90
44166;DHT22;30476;53.468;9.826;2023-01-24T14:27:29;4.70;99.90
44166;DHT22;30476;53.468;9.826;2023-01-24T14:32:47;4.70;99.90
44166;DHT22;30476;53.468;9.826;2023-01-24T14:35:25;4.70;99.90
44166;DHT22;30476;53.468;9.826;2023-01-24T14:37:51;4.70;99.90
44166;DHT22;30476;53.468;9.826;2023-01-24T14:40:26;4.60;99.90
44166;DHT22;30476;53.468;9.826;2023-01-24T14:43:00;4.60;99.90
44166;DHT22;30476;53.468;9.826;2023-01-24T14:45:28;4.60;99.90
44166;DHT22;30476;53.468;9.826;2023-01-24T14:47:56;4.60;99.90
44166;DHT22;30476;53.468;9.826;2023-01-24T14:50:29;4.60;99.90
44166;DHT22;30476;53.468;9.826;2023-01-24T14:53:02;4.60;99.90
44166;DHT22;30476;53.468;9.826;2023-01-24T14:55:44;4.60;99.90
44166;DHT22;30476;53.468;9.826;2023-01-24T15:00:40;4.60;99.90
44166;DHT22;30476;53.468;9.826;2023-01-24T15:03:06;4.60;99.90
44166;DHT22;30476;53.468;9.826;2023-01-24T15:05:34;4.50;99.90
44166;DHT22;30476;53.468;9.826;2023-01-24T15:08:05;4.50;99.90
44166;DHT22;30476;53.468;9.826;2023-01-24T15:10:35;4.60;99.90
44166;DHT22;30476;53.468;9.826;2023-01-24T15:13:04;4.50;99.90
44166;DHT22;30476;53.468;9.826;2023-01-24T15:15:32;4.50;99.90
44166;DHT22;30476;53.468;9.826;2023-01-24T15:18:04;4.50;99.90
44166;DHT22;30476;53.468;9.826;2023-01-24T15:20:31;4.50;99.90
44166;DHT22;30476;53.468;9.826;2023-01-24T15:22:58;4.50;99.90
44166;DHT22;30476;53.468;9.826;2023-01-24T15:25:33;4.50;99.90
44166;DHT22;30476;53.468;9.826;2023-01-24T15:28:18;4.40;99.90
44166;DHT22;30476;53.468;9.826;2023-01-24T15:30:53;4.40;99.90
44166;DHT22;30476;53.468;9.826;2023-01-24T15:33:20;4.40;99.90
44166;DHT22;30476;53.468;9.826;2023-01-24T15:35:47;4.40;99.90
44166;DHT22;30476;53.468;9.826;2023-01-24T15:38:29;4.40;99.90
44166;DHT22;30476;53.468;9.826;2023-01-24T15:41:19;4.40;99.90
44166;DHT22;30476;53.468;9.826;2023-01-24T15:44:05;4.40;99.90
44166;DHT22;30476;53.468;9.826;2023-01-24T15:49:36;4.30;99.90
44166;DHT22;30476;53.468;9.826;2023-01-24T15:54:30;4.30;99.90
44166;DHT22;30476;53.468;9.826;2023-01-24T15:57:11;4.30;99.90
44166;DHT22;30476;53.468;9.826;2023-01-24T15:59:41;4.30;99.90
44166;DHT22;30476;53.468;9.826;2023-01-24T16:02:11;4.20;99.90
44166;DHT22;30476;53.468;9.826;2023-01-24T16:04:37;4.20;99.90
44166;DHT22;30476;53.468;9.826;2023-01-24T16:07:03;4.20;99.90
44166;DHT22;30476;53.468;9.826;2023-01-24T16:09:29;4.20;99.90
44166;DHT22;30476;53.468;9.826;2023-01-24T16:11:55;4.20;99.90
44166;DHT22;30476;53.468;9.826;2023-01-24T16:14:23;4.20;99.90
44166;DHT22;30476;53.468;9.826;2023-01-24T16:16:51;4.20;99.90
44166;DHT22;30476;53.468;9.826;2023-01-24T16:19:19;4.10;99.90
44166;DHT22;30476;53.468;9.826;2023-01-24T16:21:47;4.20;99.90
44166;DHT22;30476;53.468;9.826;2023-01-24T16:24:13;4.10;99.90
44166;DHT22;30476;53.468;9.826;2023-01-24T16:26:45;4.10;99.90
44166;DHT22;30476;53.468;9.826;2023-01-24T16:29:20;4.10;99.90
44166;DHT22;30476;53.468;9.826;2023-01-24T16:31:46;4.10;99.90
44166;DHT22;30476;53.468;9.826;2023-01-24T16:34:12;4.10;99.90
44166;DHT22;30476;53.468;9.826;2023-01-24T16:36:39;4.10;99.90
44166;DHT22;30476;53.468;9.826;2023-01-24T16:39:05;4.10;99.90
44166;DHT22;30476;53.468;9.826;2023-01-24T16:41:32;4.20;99.90
44166;DHT22;30476;53.468;9.826;2023-01-24T16:43:58;4.10;99.90
44166;DHT22;30476;53.468;9.826;2023-01-24T16:46:24;4.10;99.90
44166;DHT22;30476;53.468;9.826;2023-01-24T16:48:50;4.10;99.90
44166;DHT22;30476;53.468;9.826;2023-01-24T16:51:17;4.10;99.90
44166;DHT22;30476;53.468;9.826;2023-01-24T16:53:44;4.10;99.90
44166;DHT22;30476;53.468;9.826;2023-01-24T16:56:10;4.10;99.90
44166;DHT22;30476;53.468;9.826;2023-01-24T16:58:36;4.10;99.90
44166;DHT22;30476;53.468;9.826;2023-01-24T17:01:11;4.10;99.90
44166;DHT22;30476;53.468;9.826;2023-01-24T17:03:37;4.10;99.90
44166;DHT22;30476;53.468;9.826;2023-01-24T17:06:07;4.00;99.90
44166;DHT22;30476;53.468;9.826;2023-01-24T17:08:34;4.10;99.90
44166;DHT22;30476;53.468;9.826;2023-01-24T17:11:08;4.10;99.90
44166;DHT22;30476;53.468;9.826;2023-01-24T17:13:34;4.00;99.90
44166;DHT22;30476;53.468;9.826;2023-01-24T17:16:07;4.00;99.90
44166;DHT22;30476;53.468;9.826;2023-01-24T17:18:34;4.00;99.90
44166;DHT22;30476;53.468;9.826;2023-01-24T17:21:04;4.00;99.90
44166;DHT22;30476;53.468;9.826;2023-01-24T17:23:32;4.00;99.90
44166;DHT22;30476;53.468;9.826;2023-01-24T17:26:12;4.00;99.90
44166;DHT22;30476;53.468;9.826;2023-01-24T17:28:39;4.00;99.90
44166;DHT22;30476;53.468;9.826;2023-01-24T17:31:16;4.00;99.90
44166;DHT22;30476;53.468;9.826;2023-01-24T17:33:43;3.90;99.90
44166;DHT22;30476;53.468;9.826;2023-01-24T17:36:10;4.00;99.90
44166;DHT22;30476;53.468;9.826;2023-01-24T17:38:37;3.90;99.90